Time;durP1;ratioP1;P1;durP2;ratioP2;P2;SDS_P1;SDS_P2;PMS_P1;PMS_P2;Temp;Humidity;BMP_temperature;BMP_pressure;BME280_temperature;BME280_humidity;BME280_pressure;Samples;Min_cycle;Max_cycle;Signal;HPM_P1;HPM_P2
2022/06/25 00:01:19;;;;;;;0.57;0.20;;;;;;;;;;4988615;28;20042;-80
2022/06/25 00:03:45;;;;;;;0.50;0.40;;;;;;;;;;4987256;28;20045;-79
2022/06/25 00:06:11;;;;;;;0.47;0.20;;;;;;;;;;4987232;28;20029;-78
2022/06/25 00:08:37;;;;;;;0.32;0.25;;;;;;;;;;4984687;28;20100;-78
2022/06/25 00:11:04;;;;;;;0.75;0.30;;;;;;;;;;4990585;28;20035;-80
2022/06/25 00:13:30;;;;;;;0.25;0.25;;;;;;;;;;4985431;28;20027;-80
2022/06/25 00:15:56;;;;;;;1.35;0.50;;;;;;;;;;4985417;28;20419;-81
2022/06/25 00:18:22;;;;;;;1.25;0.40;;;;;;;;;;4983983;28;20034;-79
2022/06/25 00:20:49;;;;;;;0.65;0.30;;;;;;;;;;4983158;28;20031;-79
2022/06/25 00:23:14;;;;;;;0.43;0.28;;;17.00;99.90;;;;;;4988347;28;20030;-80
2022/06/25 00:25:40;;;;;;;0.30;0.30;;;17.30;99.90;;;;;;4991095;28;20501;-79
2022/06/25 00:28:06;;;;;;;0.38;0.30;;;;;;;;;;4991412;28;20042;-81
2022/06/25 00:30:33;;;;;;;2.75;0.40;;;;;;;;;;4983160;28;20110;-80
2022/06/25 00:32:59;;;;;;;0.43;0.30;;;;;;;;;;4991318;28;20049;-80
2022/06/25 00:35:25;;;;;;;0.40;0.35;;;;;;;;;;4989899;28;20019;-80
2022/06/25 00:37:51;;;;;;;0.68;0.30;;;;;;;;;;4987625;28;20031;-81
2022/06/25 00:40:17;;;;;;;0.30;0.20;;;;;;;;;;4991121;28;20037;-79
2022/06/25 00:42:44;;;;;;;0.50;0.30;;;;;;;;;;4983895;28;20034;-79
2022/06/25 00:45:10;;;;;;;0.80;0.30;;;;;;;;;;4988432;28;20119;-80
2022/06/25 00:47:36;;;;;;;0.50;0.35;;;;;;;;;;4990373;28;20057;-81
2022/06/25 00:50:02;;;;;;;0.63;0.35;;;;;;;;;;4988270;28;20034;-81
2022/06/25 00:52:32;;;;;;;0.40;0.30;;;;;;;;;;4984429;28;20054;-82
2022/06/25 00:55:02;;;;;;;0.65;0.30;;;;;;;;;;4981328;28;20018;-81
2022/06/25 00:57:28;;;;;;;0.90;0.43;;;17.10;99.90;;;;;;4978193;28;20129;-81
2022/06/25 00:59:58;;;;;;;0.43;0.25;;;;;;;;;;4978924;28;20030;-80
2022/06/25 01:02:24;;;;;;;1.13;0.40;;;;;;;;;;4983412;28;20026;-83
2022/06/25 01:04:50;;;;;;;0.90;0.30;;;17.20;99.90;;;;;;4984834;28;20054;-80
2022/06/25 01:07:17;;;;;;;0.45;0.20;;;17.00;99.90;;;;;;4990740;28;20045;-79
2022/06/25 01:09:45;;;;;;;0.55;0.30;;;;;;;;;;4984985;28;20118;-82
2022/06/25 01:12:11;;;;;;;0.45;0.20;;;;;;;;;;4991796;28;20041;-81
2022/06/25 01:14:37;;;;;;;1.00;0.60;;;;;;;;;;4988162;28;20398;-81
2022/06/25 01:17:07;;;;;;;0.73;0.50;;;;;;;;;;4985573;28;20665;-81
2022/06/25 01:19:33;;;;;;;1.85;0.40;;;;;;;;;;4988782;28;20041;-80
2022/06/25 01:21:59;;;;;;;0.30;0.20;;;;;;;;;;4985570;28;20554;-81
2022/06/25 01:24:25;;;;;;;0.43;0.22;;;;;;;;;;4988377;28;20042;-81
2022/06/25 01:26:51;;;;;;;1.02;0.40;;;;;;;;;;4989092;28;20049;-81
2022/06/25 01:29:17;;;;;;;1.02;0.28;;;;;;;;;;4993793;28;20554;-79
2022/06/25 01:31:43;;;;;;;0.50;0.30;;;;;;;;;;4993047;28;20022;-80
2022/06/25 01:34:09;;;;;;;0.60;0.40;;;;;;;;;;4981973;28;20054;-82
2022/06/25 01:36:35;;;;;;;1.48;0.52;;;;;;;;;;4991886;28;20050;-81
2022/06/25 01:39:01;;;;;;;0.30;0.25;;;17.00;99.90;;;;;;4994031;28;20031;-79
2022/06/25 01:41:27;;;;;;;0.57;0.30;;;;;;;;;;4993176;28;20579;-80
2022/06/25 01:43:53;;;;;;;0.65;0.32;;;;;;;;;;4991563;28;20041;-80
2022/06/25 01:46:19;;;;;;;1.00;0.47;;;;;;;;;;4991529;28;20041;-78
2022/06/25 01:48:45;;;;;;;3.80;0.70;;;;;;;;;;4988391;28;20042;-81
2022/06/25 01:51:12;;;;;;;0.80;0.47;;;17.00;99.90;;;;;;4990036;28;20483;-79
2022/06/25 01:53:38;;;;;;;0.70;0.40;;;;;;;;;;4992365;28;20037;-80
2022/06/25 01:56:04;;;;;;;0.68;0.45;;;;;;;;;;4991352;28;20035;-81
2022/06/25 01:58:30;;;;;;;1.05;0.40;;;;;;;;;;4992767;28;20035;-81
2022/06/25 02:00:56;;;;;;;7.18;0.60;;;16.70;99.90;;;;;;4984126;28;20094;-79
2022/06/25 02:03:22;;;;;;;0.50;0.30;;;;;;;;;;4987336;28;20125;-80
2022/06/25 02:05:57;;;;;;;0.82;0.50;;;;;;;;;;4989945;28;20108;-81
2022/06/25 02:08:24;;;;;;;0.63;0.20;;;;;;;;;;4997090;28;20121;-78
2022/06/25 02:10:50;;;;;;;0.55;0.32;;;;;;;;;;4986561;28;20611;-78
2022/06/25 02:13:16;;;;;;;0.75;0.40;;;;;;;;;;4993993;28;20038;-81
2022/06/25 02:15:42;;;;;;;0.70;0.38;;;;;;;;;;4988467;28;20040;-80
2022/06/25 02:18:10;;;;;;;0.90;0.50;;;16.70;99.90;;;;;;4988059;28;20058;-79
2022/06/25 02:20:36;;;;;;;0.65;0.40;;;;;;;;;;4988096;28;20028;-79
2022/06/25 02:23:02;;;;;;;0.63;0.30;;;;;;;;;;4986739;28;20057;-80
2022/06/25 02:25:28;;;;;;;0.95;0.70;;;;;;;;;;4986974;28;20593;-79
2022/06/25 02:27:54;;;;;;;0.60;0.40;;;;;;;;;;4992776;28;20561;-81
2022/06/25 02:30:20;;;;;;;0.60;0.40;;;;;;;;;;4989707;28;20026;-79
2022/06/25 02:32:46;;;;;;;2.25;0.50;;;;;;;;;;4989809;28;21019;-78
2022/06/25 02:35:12;;;;;;;0.88;0.40;;;16.90;99.90;;;;;;4981840;28;20074;-77
2022/06/25 02:37:38;;;;;;;0.90;0.25;;;;;;;;;;4989539;28;20061;-79
2022/06/25 02:40:04;;;;;;;0.65;0.38;;;;;;;;;;4980199;28;20027;-79
2022/06/25 02:42:37;;;;;;;0.55;0.22;;;16.70;99.90;;;;;;4986108;28;20034;-78
2022/06/25 02:45:06;;;;;;;0.70;0.47;;;;;;;;;;4989239;28;20096;-79
2022/06/25 02:47:32;;;;;;;0.82;0.30;;;;;;;;;;4986393;28;20082;-80
2022/06/25 02:49:58;;;;;;;0.90;0.60;;;;;;;;;;4986606;28;20479;-79
2022/06/25 02:52:24;;;;;;;1.13;0.30;;;;;;;;;;4996289;28;20438;-80
2022/06/25 02:54:50;;;;;;;1.02;0.55;;;;;;;;;;4991373;28;20053;-81
2022/06/25 03:00:01;;;;;;;1.27;0.57;;;;;;;;;;4992218;28;20046;-80
2022/06/25 03:02:28;;;;;;;0.85;0.45;;;;;;;;;;4987995;28;20049;-81
2022/06/25 03:04:54;;;;;;;4.13;1.27;;;;;;;;;;4983907;28;20444;-78
2022/06/25 03:07:20;;;;;;;0.52;0.40;;;;;;;;;;4991781;28;20035;-79
2022/06/25 03:09:46;;;;;;;0.50;0.30;;;;;;;;;;4984890;28;20026;-80
2022/06/25 03:12:12;;;;;;;0.50;0.40;;;;;;;;;;4989038;28;20035;-79
2022/06/25 03:14:38;;;;;;;2.47;0.47;;;15.60;99.90;;;;;;4990122;28;20080;-80
2022/06/25 03:17:04;;;;;;;1.20;0.40;;;;;;;;;;4987468;28;20708;-79
2022/06/25 03:19:30;;;;;;;0.93;0.45;;;16.50;99.90;;;;;;4990267;28;20684;-81
2022/06/25 03:21:56;;;;;;;2.88;0.68;;;;;;;;;;4986920;28;20070;-81
2022/06/25 03:24:22;;;;;;;0.75;0.30;;;;;;;;;;4981708;28;20025;-80
2022/06/25 03:26:48;;;;;;;1.00;0.50;;;;;;;;;;4983860;28;20049;-81
2022/06/25 03:29:14;;;;;;;2.38;0.40;;;;;;;;;;4985404;28;20034;-82
2022/06/25 03:31:40;;;;;;;0.47;0.30;;;;;;;;;;4989601;28;20096;-80
2022/06/25 03:34:06;;;;;;;0.28;0.25;;;;;;;;;;4989430;28;20037;-82
2022/06/25 03:36:33;;;;;;;1.67;0.40;;;;;;;;;;4984738;28;20030;-81
2022/06/25 03:38:59;;;;;;;3.22;0.30;;;;;;;;;;4985416;28;20033;-81
2022/06/25 03:41:36;;;;;;;0.73;0.35;;;;;;;;;;4994634;28;20038;-79
2022/06/25 03:44:05;;;;;;;0.75;0.40;;;;;;;;;;5006121;28;20026;-81
2022/06/25 03:46:31;;;;;;;1.83;1.13;;;;;;;;;;5005079;28;20120;-80
2022/06/25 03:48:57;;;;;;;0.85;0.47;;;16.20;99.90;;;;;;5002444;28;20106;-81
2022/06/25 03:51:23;;;;;;;1.38;0.40;;;;;;;;;;4988611;28;20050;-80
2022/06/25 03:53:49;;;;;;;1.75;0.50;;;;;;;;;;4989217;28;20057;-80
2022/06/25 03:56:14;;;;;;;0.52;0.28;;;15.20;99.90;;;;;;4993024;28;20030;-80
2022/06/25 03:58:40;;;;;;;0.95;0.47;;;;;;;;;;4993914;28;20070;-81
2022/06/25 04:01:06;;;;;;;0.70;0.35;;;;;;;;;;4988439;28;20061;-81
2022/06/25 04:03:32;;;;;;;1.60;0.70;;;;;;;;;;4993811;28;20030;-83
2022/06/25 04:05:58;;;;;;;0.77;0.43;;;;;;;;;;4981181;28;20018;-82
2022/06/25 04:08:24;;;;;;;5.40;0.80;;;;;;;;;;4986350;28;20114;-82
2022/06/25 04:10:50;;;;;;;0.30;0.20;;;;;;;;;;4979175;28;20038;-82
2022/06/25 04:13:16;;;;;;;1.67;0.43;;;;;;;;;;4989424;28;20119;-82
2022/06/25 04:15:42;;;;;;;1.20;0.60;;;;;;;;;;4981703;28;20042;-81
2022/06/25 04:18:08;;;;;;;0.70;0.50;;;;;;;;;;4990875;28;20278;-81
2022/06/25 04:20:34;;;;;;;2.60;0.75;;;;;;;;;;4989746;28;20049;-83
2022/06/25 04:23:00;;;;;;;0.70;0.50;;;;;;;;;;4990517;28;20031;-82
2022/06/25 04:25:26;;;;;;;0.93;0.32;;;;;;;;;;4985841;28;20080;-82
2022/06/25 04:30:36;;;;;;;0.60;0.40;;;15.40;99.90;;;;;;4983898;28;20069;-80
2022/06/25 04:33:02;;;;;;;0.85;0.52;;;;;;;;;;4984755;28;20026;-81
2022/06/25 04:35:28;;;;;;;0.82;0.60;;;;;;;;;;4984613;28;20050;-81
2022/06/25 04:37:54;;;;;;;1.05;0.57;;;;;;;;;;4988458;28;20074;-79
2022/06/25 04:40:20;;;;;;;0.85;0.50;;;;;;;;;;4987304;28;20035;-80
2022/06/25 04:42:47;;;;;;;1.58;0.68;;;;;;;;;;4986384;28;20045;-79
2022/06/25 04:45:13;;;;;;;0.88;0.60;;;;;;;;;;4984282;28;20490;-81
2022/06/25 04:47:39;;;;;;;0.30;0.20;;;;;;;;;;4983935;28;20515;-80
2022/06/25 04:50:06;;;;;;;1.15;0.60;;;;;;;;;;4982592;28;20041;-81
2022/06/25 04:52:32;;;;;;;1.27;0.70;;;;;;;;;;4985813;28;20098;-83
2022/06/25 04:54:58;;;;;;;;;;;;;;;;;;4981184;28;20029;-81
2022/06/25 04:57:23;;;;;;;;;;;16.90;99.90;;;;;;4981848;28;20012;-80
2022/06/25 04:59:49;;;;;;;;;;;16.00;99.90;;;;;;4983146;28;19914;-79
2022/06/25 05:02:14;;;;;;;;;;;17.10;99.90;;;;;;4985301;28;20421;-80
2022/06/25 05:04:40;;;;;;;;;;;;;;;;;;4977769;28;19914;-80
2022/06/25 05:07:06;;;;;;;;;;;;;;;;;;4982564;28;19984;-80
2022/06/25 05:09:32;;;;;;;;;;;;;;;;;;4981466;28;20012;-80
2022/06/25 05:11:58;;;;;;;;;;;17.20;99.90;;;;;;4983995;28;19913;-80
2022/06/25 05:14:23;;;;;;;;;;;17.80;99.90;;;;;;4982974;28;19929;-79
2022/06/25 05:16:49;;;;;;;;;;;17.30;99.90;;;;;;4986828;28;19906;-79
2022/06/25 05:19:15;;;;;;;;;;;;;;;;;;4978998;28;19985;-81
2022/06/25 05:21:40;;;;;;;;;;;17.50;99.90;;;;;;4984840;28;19910;-79
2022/06/25 05:24:06;;;;;;;;;;;;;;;;;;4986927;28;19989;-79
2022/06/25 05:26:32;;;;;;;;;;;17.50;99.90;;;;;;4986095;28;19917;-79
2022/06/25 05:28:58;;;;;;;;;;;;;;;;;;4983565;28;19918;-79
2022/06/25 05:31:23;;;;;;;;;;;;;;;;;;4987618;28;19917;-79
2022/06/25 05:33:49;;;;;;;;;;;17.90;99.90;;;;;;4987976;28;19909;-79
2022/06/25 05:36:15;;;;;;;3.30;0.40;;;;;;;;;;4978121;28;19914;-80
2022/06/25 05:38:41;;;;;;;0.52;0.40;;;;;;;;;;4985544;28;20637;-78
2022/06/25 05:41:09;;;;;;;0.88;0.40;;;17.60;99.90;;;;;;4988053;28;20054;-77
2022/06/25 05:43:36;;;;;;;0.73;0.35;;;;;;;;;;4981432;28;20037;-78
2022/06/25 05:46:02;;;;;;;0.70;0.43;;;;;;;;;;4986071;28;20037;-78
2022/06/25 05:48:28;;;;;;;3.97;0.63;;;18.30;99.90;;;;;;4991829;28;20056;-77
2022/06/25 05:50:54;;;;;;;2.17;0.40;;;18.50;99.90;;;;;;4989236;28;21536;-77
2022/06/25 05:53:20;;;;;;;1.90;0.30;;;;;;;;;;4982556;28;20034;-79
2022/06/25 05:55:46;;;;;;;0.73;0.40;;;;;;;;;;4986841;28;20437;-79
2022/06/25 05:58:12;;;;;;;4.72;0.38;;;;;;;;;;4977859;28;20056;-79
2022/06/25 06:00:39;;;;;;;1.27;0.50;;;21.60;99.90;;;;;;4981944;28;20045;-80
2022/06/25 06:03:05;;;;;;;1.67;0.45;;;;;;;;;;4984076;28;20498;-78
2022/06/25 06:05:31;;;;;;;0.55;0.32;;;;;;;;;;4969356;28;20124;-78
2022/06/25 06:07:57;;;;;;;;;;;;;;;;;;4980310;28;20158;-80
2022/06/25 06:10:23;;;;;;;;;;;;;;;;;;4985212;28;19988;-78
2022/06/25 06:12:49;;;;;;;;;;;21.40;99.90;;;;;;4987483;28;19909;-79
2022/06/25 06:15:14;;;;;;;0.85;0.45;;;22.00;99.90;;;;;;4986027;28;20358;-79
2022/06/25 06:17:40;;;;;;;0.93;0.20;;;;;;;;;;4976995;28;20031;-77
2022/06/25 06:20:07;;;;;;;0.65;0.28;;;23.60;99.90;;;;;;4980287;28;20613;-79
2022/06/25 06:22:32;;;;;;;;;;;23.60;99.90;;;;;;4981089;28;20046;-82
2022/06/25 06:24:58;;;;;;;0.20;0.20;;;;;;;;;;4978295;28;19960;-83
2022/06/25 06:27:24;;;;;;;0.35;0.28;;;;;;;;;;4985817;28;20034;-79
2022/06/25 06:29:50;;;;;;;0.20;0.17;;;;;;;;;;4978591;28;20598;-83
2022/06/25 06:32:16;;;;;;;0.25;0.20;;;26.50;98.20;;;;;;4985513;28;20504;-81
2022/06/25 06:34:43;;;;;;;0.22;0.10;;;;;;;;;;4984419;28;20030;-80
2022/06/25 06:37:09;;;;;;;0.50;0.15;;;;;;;;;;4980751;28;20033;-81
2022/06/25 06:39:35;;;;;;;2.47;0.20;;;;;;;;;;4992090;28;20037;-80
2022/06/25 06:42:01;;;;;;;0.40;0.10;;;34.40;72.80;;;;;;4986449;28;20034;-83
2022/06/25 06:44:27;;;;;;;0.35;0.10;;;;;;;;;;4981645;28;20085;-81
2022/06/25 06:46:53;;;;;;;0.90;0.40;;;;;;;;;;4980555;28;20153;-82
2022/06/25 06:49:19;;;;;;;0.55;0.20;;;;;;;;;;4984241;28;20030;-82
2022/06/25 06:51:44;;;;;;;0.20;0.10;;;30.60;72.80;;;;;;4986800;28;20031;-77
2022/06/25 06:54:10;;;;;;;0.73;0.10;;;;;;;;;;4991093;28;20052;-82
2022/06/25 06:56:36;;;;;;;0.30;0.20;;;31.20;77.30;;;;;;4989076;28;20061;-79
2022/06/25 06:59:03;;;;;;;3.50;0.75;;;;;;;;;;4967534;28;20053;-81
2022/06/25 07:01:28;;;;;;;0.40;0.15;;;32.80;65.10;;;;;;4980828;28;20026;-79
2022/06/25 07:03:54;;;;;;;1.38;0.20;;;;;;;;;;4988150;28;20041;-80
2022/06/25 07:06:21;;;;;;;2.47;0.20;;;;;;;;;;4977126;28;20054;-85
2022/06/25 07:08:47;;;;;;;0.10;0.10;;;;;;;;;;4979281;28;20486;-83
2022/06/25 07:11:29;;;;;;;0.88;0.20;;;;;;;;;;4978086;28;20042;-79
2022/06/25 07:13:59;;;;;;;0.35;0.15;;;35.40;50.30;;;;;;4979302;28;20035;-80
2022/06/25 07:16:25;;;;;;;1.08;0.20;;;;;;;;;;4983346;28;20339;-81
2022/06/25 07:18:51;;;;;;;1.45;0.35;;;;;;;;;;4977434;28;20027;-80
2022/06/25 07:21:17;;;;;;;;;;;33.80;51.50;;;;;;4979126;28;20434;-80
2022/06/25 07:23:42;;;;;;;;;;;33.10;52.50;;;;;;4975633;28;19910;-79
2022/06/25 07:26:08;;;;;;;;;;;32.20;55.20;;;;;;4984286;28;19964;-80
2022/06/25 07:28:33;;;;;;;;;;;31.50;58.50;;;;;;4979188;28;19925;-79
2022/06/25 07:30:58;;;;;;;;;;;32.00;56.80;;;;;;4980158;28;19918;-80
2022/06/25 07:33:24;;;;;;;;;;;32.70;55.20;;;;;;4990513;28;19920;-80
2022/06/25 07:35:49;;;;;;;;;;;33.20;53.10;;;;;;4980245;28;19914;-77
2022/06/25 07:38:15;;;;;;;;;;;32.70;52.90;;;;;;4980181;28;19922;-79
2022/06/25 07:40:40;;;;;;;;;;;30.80;54.60;;;;;;4986141;28;19922;-80
2022/06/25 07:43:16;;;;;;;;;;;32.90;57.00;;;;;;4990892;28;19917;-79
2022/06/25 07:45:42;;;;;;;;;;;29.60;57.50;;;;;;4985822;28;19920;-79
2022/06/25 07:48:08;;;;;;;0.30;0.30;;;;;;;;;;4977084;28;19921;-81
2022/06/25 07:53:18;;;;;;;;;;;28.20;63.40;;;;;;4984495;28;19955;-81
2022/06/25 07:55:43;;;;;;;;;;;28.90;60.90;;;;;;4982264;28;19910;-77
2022/06/25 07:58:10;;;;;;;;;;;;;;;;;;4984933;28;20520;-78
2022/06/25 08:00:36;;;;;;;0.38;0.25;;;;;;;;;;4984790;28;20051;-76
2022/06/25 08:03:02;;;;;;;0.70;0.38;;;;;;;;;;4987021;28;20026;-77
2022/06/25 08:05:28;;;;;;;0.43;0.30;;;;;;;;;;4979654;28;20057;-76
2022/06/25 08:07:54;;;;;;;;;;;30.90;58.90;;;;;;4978296;28;20507;-78
2022/06/25 08:10:21;;;;;;;;;;;30.90;59.60;;;;;;4976668;28;19910;-79
2022/06/25 08:12:47;;;;;;;;;;;31.20;57.50;;;;;;4985174;28;19929;-78
2022/06/25 08:15:12;;;;;;;;;;;32.30;55.60;;;;;;4976385;28;19913;-79
2022/06/25 08:17:38;;;;;;;;;;;31.90;55.30;;;;;;4987769;28;19956;-80
2022/06/25 08:20:03;;;;;;;;;;;31.80;56.50;;;;;;4980541;28;20425;-78
2022/06/25 08:22:29;;;;;;;;;;;30.40;56.20;;;;;;4972634;28;19914;-80
2022/06/25 08:24:56;;;;;;;;;;;30.80;55.10;;;;;;4984616;28;20000;-80
2022/06/25 08:27:21;;;;;;;;;;;31.00;57.60;;;;;;4994605;28;20021;-77
2022/06/25 08:29:47;;;;;;;;;;;31.40;58.30;;;;;;4978125;28;20016;-80
2022/06/25 08:32:13;;;;;;;;;;;30.80;57.80;;;;;;4980674;28;19914;-79
2022/06/25 08:34:38;;;;;;;;;;;31.50;56.40;;;;;;4985458;28;19925;-77
2022/06/25 08:37:05;;;;;;;;;;;31.80;57.80;;;;;;5005967;28;19956;-77
2022/06/25 08:39:31;;;;;;;;;;;32.60;54.20;;;;;;5006811;28;19933;-78
2022/06/25 08:41:59;;;;;;;;;;;33.60;53.40;;;;;;5000617;28;19925;-78
2022/06/25 08:44:24;;;;;;;;;;;34.70;49.10;;;;;;4985941;28;19925;-80
2022/06/25 08:46:50;;;;;;;;;;;35.90;48.10;;;;;;4982314;28;19914;-79
2022/06/25 08:49:17;;;;;;;;;;;35.50;47.70;;;;;;4978244;28;19922;-78
2022/06/25 08:51:43;;;;;;;;;;;36.80;45.50;;;;;;4983424;28;19918;-79
2022/06/25 08:54:10;;;;;;;;;;;37.60;43.90;;;;;;4975911;28;19918;-78
2022/06/25 08:56:36;;;;;;;;;;;38.20;43.80;;;;;;4984488;28;19913;-79
2022/06/25 08:59:01;;;;;;;;;;;38.20;45.20;;;;;;4985471;28;19910;-78
2022/06/25 09:01:27;;;;;;;;;;;37.40;44.00;;;;;;4989400;28;19985;-79
2022/06/25 09:03:53;;;;;;;;;;;39.10;43.40;;;;;;4982344;28;20051;-78
2022/06/25 09:06:20;;;;;;;;;;;38.30;39.50;;;;;;4980300;28;20004;-79
2022/06/25 09:09:06;;;;;;;;;;;39.20;38.60;;;;;;4977588;28;19918;-77
2022/06/25 09:11:31;;;;;;;;;;;37.90;41.70;;;;;;4990596;28;20021;-78
2022/06/25 09:14:15;;;;;;;;;;;36.10;41.80;;;;;;4986320;28;20012;-78
2022/06/25 09:16:41;;;;;;;;;;;37.20;44.00;;;;;;4974560;28;19910;-80
2022/06/25 09:19:06;;;;;;;;;;;36.60;41.70;;;;;;4979393;28;19984;-78
2022/06/25 09:21:39;;;;;;;;;;;35.60;44.70;;;;;;4985651;28;19910;-79
2022/06/25 09:24:05;;;;;;;;;;;36.20;45.70;;;;;;4975544;28;19914;-77
2022/06/25 09:26:30;;;;;;;;;;;35.70;44.90;;;;;;4984286;28;20394;-79
2022/06/25 09:28:59;;;;;;;;;;;35.80;45.80;;;;;;4987273;28;20618;-79
2022/06/25 09:31:35;;;;;;;;;;;35.30;47.70;;;;;;4991310;28;19917;-79
2022/06/25 09:34:02;;;;;;;;;;;35.30;46.00;;;;;;4980617;28;19917;-79
2022/06/25 09:36:27;;;;;;;;;;;33.40;48.80;;;;;;4964546;28;19918;-78
2022/06/25 09:38:52;;;;;;;;;;;32.50;50.50;;;;;;4979684;28;19918;-79
2022/06/25 09:41:18;;;;;;;;;;;31.20;53.70;;;;;;4984072;28;19910;-77
2022/06/25 09:43:47;;;;;;;;;;;29.90;54.30;;;;;;4983628;28;20420;-80
2022/06/25 09:46:13;;;;;;;;;;;25.90;53.40;;;;;;4985441;28;19926;-79
2022/06/25 09:48:40;;;;;;;;;;;28.10;57.30;;;;;;4980889;28;19964;-78
2022/06/25 09:51:10;;;;;;;;;;;27.80;59.00;;;;;;4986502;28;19917;-78
2022/06/25 09:53:44;;;;;;;;;;;27.70;58.80;;;;;;4985872;28;19952;-79
2022/06/25 09:56:10;;;;;;;;;;;28.50;59.30;;;;;;4995317;28;19909;-78
2022/06/25 09:58:36;;;;;;;;;;;27.40;62.70;;;;;;4983834;28;20035;-77
2022/06/25 10:01:03;;;;;;;;;;;28.50;61.00;;;;;;4981858;28;20074;-77
2022/06/25 10:03:30;;;;;;;;;;;27.50;59.50;;;;;;4976218;28;19914;-80
2022/06/25 10:05:56;;;;;;;;;;;27.90;62.60;;;;;;4987998;28;19910;-79
2022/06/25 10:08:22;;;;;;;;;;;27.70;57.20;;;;;;4990352;28;19925;-78
2022/06/25 10:10:50;;;;;;;;;;;27.90;58.20;;;;;;4985811;28;19910;-78
2022/06/25 10:13:16;;;;;;;;;;;27.30;60.10;;;;;;4981222;28;19910;-77
2022/06/25 10:15:43;;;;;;;;;;;26.80;61.80;;;;;;4981005;28;19917;-79
2022/06/25 10:18:10;;;;;;;;;;;26.50;61.70;;;;;;4983027;28;19914;-77
2022/06/25 10:20:36;;;;;;;;;;;26.20;61.50;;;;;;4984746;28;20334;-78
2022/06/25 10:23:02;;;;;;;;;;;26.00;61.40;;;;;;5001584;28;19909;-79
2022/06/25 10:25:28;;;;;;;;;;;25.70;63.90;;;;;;4985797;28;20331;-78
2022/06/25 10:27:54;;;;;;;;;;;;;;;;;;4984149;28;20469;-79
2022/06/25 10:30:42;;;;;;;;;;;25.70;63.70;;;;;;4987373;28;19976;-79
2022/06/25 10:33:08;;;;;;;;;;;26.00;64.00;;;;;;4981900;28;19971;-78
2022/06/25 10:35:37;;;;;;;;;;;25.90;63.40;;;;;;4985789;28;20487;-80
2022/06/25 10:38:06;;;;;;;;;;;26.50;64.60;;;;;;4991086;28;20057;-78
2022/06/25 10:40:52;;;;;;;;;;;26.80;63.60;;;;;;4981858;28;19914;-79
2022/06/25 10:43:34;;;;;;;;;;;27.00;64.10;;;;;;4977875;28;19921;-79
2022/06/25 10:45:59;;;;;;;;;;;27.60;62.50;;;;;;4976833;28;20397;-81
2022/06/25 10:48:26;;;;;;;;;;;27.60;59.60;;;;;;4986348;28;19926;-79
2022/06/25 10:50:52;;;;;;;;;;;27.70;61.50;;;;;;4979918;28;20369;-79
2022/06/25 10:53:18;;;;;;;;;;;27.70;61.60;;;;;;4975549;28;20413;-80
2022/06/25 10:55:46;;;;;;;;;;;29.00;61.30;;;;;;4987375;28;19960;-79
2022/06/25 10:58:21;;;;;;;;;;;29.00;63.70;;;;;;4981139;28;19921;-78
2022/06/25 11:01:01;;;;;;;;;;;28.70;57.90;;;;;;4989627;28;20207;-79
2022/06/25 11:03:30;;;;;;;;;;;28.20;59.00;;;;;;4987343;28;20445;-80
2022/06/25 11:05:56;;;;;;;;;;;28.80;58.00;;;;;;4982102;28;19924;-79
2022/06/25 11:08:23;;;;;;;;;;;29.30;57.40;;;;;;4987541;28;19928;-79
2022/06/25 11:10:48;;;;;;;;;;;28.20;58.00;;;;;;4981837;28;19909;-79
2022/06/25 11:13:14;;;;;;;;;;;28.00;59.20;;;;;;4985229;28;19972;-79
2022/06/25 11:15:43;;;;;;;;;;;27.60;57.90;;;;;;4983280;28;20551;-80
2022/06/25 11:18:12;;;;;;;;;;;27.40;60.00;;;;;;4982261;28;19981;-80
2022/06/25 11:20:38;;;;;;;;;;;;;;;;;;4984197;28;19964;-79
2022/06/25 11:23:04;;;;;;;;;;;27.00;60.20;;;;;;4981132;28;19910;-78
2022/06/25 11:28:48;;;;;;;;;;;26.90;61.10;;;;;;4974934;28;19977;-79
2022/06/25 11:31:14;;;;;;;;;;;26.80;60.80;;;;;;4972794;28;19918;-77
2022/06/25 11:33:40;;;;;;;;;;;25.80;59.10;;;;;;4973833;28;20386;-78
2022/06/25 11:36:13;;;;;;;;;;;26.60;60.60;;;;;;4980996;28;20382;-78
2022/06/25 11:38:42;;;;;;;;;;;26.80;60.50;;;;;;4982201;28;19910;-78
2022/06/25 11:41:18;;;;;;;;;;;27.00;61.90;;;;;;5000267;28;19905;-78
2022/06/25 11:43:43;;;;;;;;;;;26.70;61.70;;;;;;4987488;28;20421;-77
2022/06/25 11:46:09;;;;;;;;;;;26.60;61.60;;;;;;4984513;28;19921;-78
2022/06/25 11:48:34;;;;;;;;;;;26.60;59.60;;;;;;4985940;28;19932;-79
2022/06/25 11:51:01;;;;;;;;;;;26.70;59.00;;;;;;4983694;28;19960;-80
2022/06/25 11:53:27;;;;;;;;;;;27.20;59.20;;;;;;4979009;28;19910;-78
2022/06/25 11:55:59;;;;;;;;;;;26.60;59.20;;;;;;4986896;28;20008;-77
2022/06/25 11:58:26;;;;;;;;;;;26.30;60.00;;;;;;4987595;28;19918;-79
2022/06/25 12:00:56;;;;;;;;;;;26.30;61.50;;;;;;4988760;28;19964;-78
2022/06/25 12:03:25;;;;;;;;;;;26.10;61.40;;;;;;4989771;28;19906;-78
2022/06/25 12:05:51;;;;;;;;;;;26.40;62.90;;;;;;4983256;28;20378;-77
2022/06/25 12:08:17;;;;;;;;;;;26.60;60.60;;;;;;4988967;28;20016;-78
2022/06/25 12:10:43;;;;;;;;;;;26.70;60.60;;;;;;4986068;28;19910;-79
2022/06/25 12:13:09;;;;;;;;;;;27.50;59.80;;;;;;4987679;28;20797;-80
2022/06/25 12:15:35;;;;;;;;;;;27.00;59.70;;;;;;4991147;28;20008;-79
2022/06/25 12:18:04;;;;;;;;;;;27.00;59.20;;;;;;4993100;28;19916;-79
2022/06/25 12:20:30;;;;;;;;;;;27.20;58.90;;;;;;4987668;28;20285;-78
2022/06/25 12:22:56;;;;;;;;;;;27.30;57.70;;;;;;4980906;28;20013;-78
2022/06/25 12:25:22;;;;;;;;;;;27.20;57.60;;;;;;4985214;28;19972;-79
2022/06/25 12:27:48;;;;;;;;;;;27.20;60.90;;;;;;4978089;28;20532;-78
2022/06/25 12:30:22;;;;;;;;;;;28.00;58.10;;;;;;4976629;28;19925;-77
2022/06/25 12:32:47;;;;;;;;;;;27.30;56.70;;;;;;4982260;28;19920;-78
2022/06/25 12:35:20;;;;;;;;;;;26.90;54.60;;;;;;4981373;28;19918;-77
2022/06/25 12:38:03;;;;;;;;;;;26.80;55.80;;;;;;4988095;28;20016;-77
2022/06/25 12:40:30;;;;;;;;;;;27.60;54.60;;;;;;4975255;28;20504;-78
2022/06/25 12:42:57;;;;;;;;;;;27.00;55.20;;;;;;4979465;28;20530;-78
2022/06/25 12:45:22;;;;;;;;;;;27.20;54.70;;;;;;4976526;28;19964;-78
2022/06/25 12:47:48;;;;;;;;;;;27.90;58.10;;;;;;4982970;28;20334;-77
2022/06/25 12:50:21;;;;;;;;;;;27.90;57.30;;;;;;4983350;28;19996;-77
2022/06/25 12:52:46;;;;;;;;;;;27.40;56.80;;;;;;4977458;28;19914;-78
2022/06/25 12:55:17;;;;;;;;;;;27.40;57.70;;;;;;4976802;28;19916;-78
2022/06/25 12:57:42;;;;;;;;;;;27.60;56.50;;;;;;4979113;28;20000;-79
2022/06/25 13:00:26;;;;;;;;;;;27.60;55.90;;;;;;4971919;28;20457;-77
2022/06/25 13:02:52;;;;;;;;;;;27.70;55.60;;;;;;4977048;28;20487;-77
2022/06/25 13:05:18;;;;;;;;;;;28.80;53.70;;;;;;4976244;28;19944;-78
2022/06/25 13:07:43;;;;;;;;;;;28.60;54.60;;;;;;4989215;28;19929;-77
2022/06/25 13:10:09;;;;;;;;;;;28.80;56.20;;;;;;4981015;28;19910;-78
2022/06/25 13:12:34;;;;;;;;;;;27.80;56.70;;;;;;4981132;28;19936;-78
2022/06/25 13:15:03;;;;;;;;;;;27.90;55.10;;;;;;4975462;28;19945;-78
2022/06/25 13:17:29;;;;;;;;;;;27.80;53.30;;;;;;4976837;28;20397;-78
2022/06/25 13:19:54;;;;;;;;;;;28.60;53.20;;;;;;4980261;28;19945;-79
2022/06/25 13:22:20;;;;;;;;;;;27.70;52.90;;;;;;4982285;28;20874;-79
2022/06/25 13:24:46;;;;;;;;;;;27.30;56.00;;;;;;4986373;28;19918;-79
2022/06/25 13:27:11;;;;;;;;;;;27.20;57.10;;;;;;4985020;28;19924;-79
2022/06/25 13:29:36;;;;;;;;;;;27.20;57.70;;;;;;4991173;28;20330;-78
2022/06/25 13:32:03;;;;;;;;;;;27.00;57.90;;;;;;4977810;28;19917;-79
2022/06/25 13:34:29;;;;;;;;;;;27.30;57.90;;;;;;4988751;28;19914;-77
2022/06/25 13:36:55;;;;;;;;;;;28.50;56.90;;;;;;5005078;28;19969;-76
2022/06/25 13:39:20;;;;;;;;;;;28.50;57.00;;;;;;4998661;28;19944;-77
2022/06/25 13:41:46;;;;;;;;;;;28.60;56.20;;;;;;4992990;28;19952;-79
2022/06/25 13:44:12;;;;;;;;;;;28.40;55.00;;;;;;4993063;28;19932;-80
2022/06/25 13:46:38;;;;;;;;;;;29.30;54.60;;;;;;4988913;28;19922;-80
2022/06/25 13:49:04;;;;;;;;;;;28.70;55.30;;;;;;4988149;28;19980;-77
2022/06/25 13:51:29;;;;;;;;;;;28.80;55.30;;;;;;4984735;28;19980;-79
2022/06/25 13:53:55;;;;;;;;;;;29.00;51.60;;;;;;4987235;28;19917;-80
2022/06/25 13:56:20;;;;;;;;;;;29.50;51.00;;;;;;4985527;28;19925;-78
2022/06/25 13:58:46;;;;;;;;;;;29.90;52.50;;;;;;4982508;28;20013;-78
2022/06/25 14:01:11;;;;;;;;;;;30.00;54.60;;;;;;4982932;28;19924;-79
2022/06/25 14:03:37;;;;;;;;;;;28.70;50.80;;;;;;4988952;28;20008;-78
2022/06/25 14:06:03;;;;;;;;;;;30.00;53.40;;;;;;4985964;28;20386;-78
2022/06/25 14:08:29;;;;;;;;;;;30.10;54.00;;;;;;4986592;28;20305;-78
2022/06/25 14:10:54;;;;;;;;;;;29.00;52.80;;;;;;4983598;28;19956;-77
2022/06/25 14:13:20;;;;;;;;;;;29.10;52.20;;;;;;4979141;28;20376;-78
2022/06/25 14:15:45;;;;;;;;;;;29.20;55.00;;;;;;4987773;28;19914;-78
2022/06/25 14:18:11;;;;;;;;;;;30.10;52.00;;;;;;4982379;28;19918;-78
2022/06/25 14:20:37;;;;;;;;;;;29.60;50.90;;;;;;4983829;28;19914;-78
2022/06/25 14:23:02;;;;;;;;;;;30.10;51.60;;;;;;4985489;28;19920;-78
2022/06/25 14:25:28;;;;;;;;;;;29.70;52.80;;;;;;4983153;28;20029;-78
2022/06/25 14:27:55;;;;;;;;;;;28.70;50.20;;;;;;4984014;28;19922;-78
2022/06/25 14:30:21;;;;;;;;;;;28.80;52.00;;;;;;4978927;28;19913;-78
2022/06/25 14:32:47;;;;;;;;;;;28.80;51.40;;;;;;4993240;28;20393;-78